Time;durP1;ratioP1;P1;durP2;ratioP2;P2;SDS_P1;SDS_P2;PMS_P1;PMS_P2;Temp;Humidity;BMP_temperature;BMP_pressure;BME280_temperature;BME280_humidity;BME280_pressure;Samples;Min_cycle;Max_cycle;Signal;HPM_P1;HPM_P2
2023/08/03 00:04:48;;;;;;;2.17;1.30;;;;;;;-145.68;78.41;71981.00;10216909;29;20212;-73
2023/08/03 00:09:49;;;;;;;4.80;1.35;;;;;;;-145.68;80.00;72000.97;10216899;29;20235;-73
2023/08/03 00:14:50;;;;;;;3.05;1.08;;;;;;;-145.68;77.97;71981.00;10216632;29;20219;-73
2023/08/03 00:19:50;;;;;;;4.65;1.10;;;;;;;-145.68;78.42;72010.97;10216423;29;20243;-73
2023/08/03 00:24:51;;;;;;;5.07;1.45;;;;;;;-145.68;77.85;72004.97;10216394;29;20219;-73
2023/08/03 00:29:51;;;;;;;7.82;1.20;;;;;;;-145.68;77.19;72010.97;10216082;29;20773;-73
2023/08/03 00:34:53;;;;;;;6.22;1.83;;;;;;;-145.68;76.89;72008.97;10216344;29;20239;-73
2023/08/03 00:39:53;;;;;;;4.00;1.30;;;;;;;-145.68;76.86;72022.97;10215505;29;20330;-72
2023/08/03 00:44:53;;;;;;;12.02;1.60;;;;;;;-145.68;77.05;72030.94;10198115;29;20295;-72
2023/08/03 00:49:54;;;;;;;6.60;1.38;;;;;;;-145.68;76.90;72044.94;10215558;29;20247;-72
2023/08/03 00:54:54;;;;;;;4.80;1.30;;;;;;;-145.68;77.74;72044.94;10215298;29;20218;-72
2023/08/03 00:59:55;;;;;;;6.03;1.55;;;;;;;-145.68;76.22;72034.94;10214810;29;20670;-72
2023/08/03 01:04:55;;;;;;;7.50;1.90;;;;;;;-145.68;76.00;72042.94;10197710;29;20208;-72
2023/08/03 01:09:57;;;;;;;7.22;1.75;;;;;;;-145.68;76.31;72040.94;10215460;29;20232;-72
2023/08/03 01:14:58;;;;;;;7.05;1.80;;;;;;;-145.68;76.16;72032.94;10214701;29;20216;-72
2023/08/03 01:19:58;;;;;;;5.78;1.80;;;;;;;-145.68;75.48;72024.97;10214240;29;20231;-72
2023/08/03 01:24:59;;;;;;;3.58;1.45;;;;;;;-145.68;73.48;72002.97;10214284;29;20308;-72
2023/08/03 01:29:59;;;;;;;11.77;2.25;;;;;;;-145.68;73.90;72004.97;10196850;29;20228;-72
2023/08/03 01:35:00;;;;;;;6.45;1.50;;;;;;;-145.68;74.53;72006.97;10213904;29;20200;-72
2023/08/03 01:40:02;;;;;;;8.48;1.92;;;;;;;-145.68;75.51;72018.97;10196263;29;20235;-72
2023/08/03 01:45:05;;;;;;;6.88;1.58;;;;;;;-145.68;75.38;72002.97;10196409;29;20219;-71
2023/08/03 01:50:05;;;;;;;5.65;1.52;;;;;;;-145.68;75.40;72010.97;10212933;29;20733;-71
2023/08/03 01:55:06;;;;;;;6.53;1.88;;;;;;;-145.68;76.07;72022.97;10194872;29;20223;-71
2023/08/03 02:00:08;;;;;;;8.88;2.17;;;;;;;-145.68;76.19;72022.97;10212681;29;20273;-71
2023/08/03 02:05:13;;;;;;;4.47;1.38;;;;;;;-145.68;74.74;71996.97;10212400;29;20205;-71
2023/08/03 02:10:14;;;;;;;7.68;1.33;;;;;;;-145.68;73.93;71998.97;10195920;29;20616;-71
2023/08/03 02:15:15;;;;;;;6.50;1.50;;;;;;;-145.68;73.81;72004.97;10212097;29;20215;-71
2023/08/03 02:20:16;;;;;;;8.65;1.67;;;;;;;-145.68;73.18;72006.97;10194691;29;20232;-71
2023/08/03 02:25:16;;;;;;;8.02;1.27;;;;;;;-145.68;72.88;72010.97;10195098;29;20212;-70
2023/08/03 02:30:16;;;;;;;4.75;1.40;;;;;;;-145.68;72.01;71996.97;10211703;29;20235;-71
2023/08/03 02:35:17;;;;;;;5.28;1.50;;;;;;;-145.68;71.42;71991.00;10194695;29;20535;-70
2023/08/03 02:40:19;;;;;;;5.28;1.52;;;;;;;-145.68;71.66;71995.00;10194158;29;20703;-71
2023/08/03 02:45:21;;;;;;;6.20;1.80;;;;;;;-145.68;71.39;71987.00;10194229;29;20211;-71
2023/08/03 02:50:22;;;;;;;4.40;1.48;;;;;;;-145.68;71.03;71977.00;10194155;29;20259;-71
2023/08/03 02:55:27;;;;;;;5.20;2.00;;;;;;;-145.68;72.34;72004.97;10193722;29;20765;-71
2023/08/03 03:00:30;;;;;;;9.30;1.92;;;;;;;-145.68;74.86;72036.94;10193848;29;20232;-70
2023/08/03 03:05:31;;;;;;;5.85;1.80;;;;;;;-145.68;75.56;72042.94;10193420;29;20211;-70
2023/08/03 03:10:32;;;;;;;25.30;2.47;;;;;;;-145.68;75.81;72052.94;10193702;29;20239;-70
2023/08/03 03:15:32;;;;;;;5.57;1.55;;;;;;;-145.68;76.46;72064.91;10210534;29;20204;-70
2023/08/03 03:20:34;;;;;;;7.55;1.60;;;;;;;-145.68;74.54;72050.94;10193245;29;20294;-70
2023/08/03 03:25:35;;;;;;;6.18;1.65;;;;;;;-145.68;74.55;72048.94;10193464;29;20263;-70
2023/08/03 03:30:35;;;;;;;5.20;1.67;;;;;;;-145.68;74.52;72064.91;10210244;29;20283;-70
2023/08/03 03:35:36;;;;;;;8.25;1.60;;;;;;;-145.68;74.87;72072.91;10210130;29;20753;-70
2023/08/03 03:40:36;;;;;;;11.02;1.75;;;;;;;-145.68;73.21;72068.91;10210184;29;20335;-70
2023/08/03 03:45:38;;;;;;;7.35;1.50;;;;;;;-145.68;71.59;72058.94;10192715;29;20215;-70
2023/08/03 03:50:39;;;;;;;6.20;1.65;;;;;;;-145.68;72.13;72074.91;10193127;29;20212;-70
2023/08/03 03:55:39;;;;;;;7.00;1.70;;;;;;;-145.68;71.83;72068.91;10192398;29;20250;-70
2023/08/03 04:00:40;;;;;;;7.78;2.30;;;;;;;-145.68;70.97;72072.91;10192735;29;20295;-70
2023/08/03 04:05:43;;;;;;;7.38;1.80;;;;;;;-145.68;71.16;72076.91;10192584;29;20215;-70
2023/08/03 04:10:43;;;;;;;9.57;1.80;;;;;;;-145.68;70.90;72062.91;10209488;29;20216;-69
2023/08/03 04:15:44;;;;;;;6.88;1.98;;;;;;;-145.68;71.77;72086.91;10209358;29;20586;-70
2023/08/03 04:20:44;;;;;;;9.02;1.45;;;;;;;-145.68;70.44;72066.91;10213842;29;20208;-70
2023/08/03 04:25:44;;;;;;;3.65;1.08;;;;;;;-145.68;70.14;72060.94;10199439;29;20592;-69
2023/08/03 04:30:50;;;;;;;4.32;1.60;;;;;;;-145.68;69.51;72052.94;10199244;29;20204;-72
2023/08/03 04:35:51;;;;;;;5.30;1.63;;;;;;;-145.68;69.50;72052.94;10198622;29;20243;-68
2023/08/03 04:41:04;;;;;;;4.55;1.75;;;;;;;-145.68;69.11;72048.94;10199052;29;20260;-71
2023/08/03 04:46:08;;;;;;;5.57;1.20;;;;;;;-145.68;68.36;72028.94;10198247;29;20346;-70
2023/08/03 04:51:09;;;;;;;7.10;1.30;;;;;;;-145.68;66.77;72006.97;10215521;29;20283;-70
2023/08/03 04:56:10;;;;;;;3.78;0.93;;;;;;;-145.68;64.60;71979.00;10220167;23;20729;-67
2023/08/03 05:01:11;;;;;;;5.13;1.65;;;;;;;-145.68;64.57;71971.00;10236277;29;20350;-67
2023/08/03 05:06:11;;;;;;;7.72;1.38;;;;;;;-145.68;63.86;71957.03;10252737;29;20204;-68
2023/08/03 05:11:12;;;;;;;3.78;1.10;;;;;;;-145.68;63.74;71947.03;10214610;29;20338;-67
2023/08/03 05:16:18;;;;;;;5.30;1.58;;;;;;;-145.68;63.16;71937.03;10197350;29;20226;-67
2023/08/03 05:21:19;;;;;;;8.07;1.50;;;;;;;-145.68;62.12;71927.06;10197279;29;20216;-67
2023/08/03 05:26:19;;;;;;;5.63;1.75;;;;;;;-145.68;61.59;71915.06;10196936;29;20744;-68
2023/08/03 05:31:20;;;;;;;8.10;1.88;;;;;;;-145.68;61.06;71909.06;10214005;29;20589;-67
2023/08/03 05:36:20;;;;;;;5.40;1.30;;;;;;;-145.68;60.42;71885.09;10213532;29;20244;-68
2023/08/03 05:41:22;;;;;;;2.47;1.05;;;;;;;-145.68;59.49;71879.09;10213732;29;20263;-68
2023/08/03 05:46:23;;;;;;;3.97;1.20;;;;;;;-145.68;59.39;71859.13;10213222;29;20298;-68
2023/08/03 05:51:25;;;;;;;4.38;1.23;;;;;;;-145.68;59.18;71849.13;10213259;29;20215;-68
2023/08/03 05:56:26;;;;;;;2.72;0.82;;;;;;;-145.68;58.17;71843.13;10212992;29;20298;-68
2023/08/03 06:01:26;;;;;;;3.53;1.27;;;;;;;-145.68;58.17;71813.16;10212772;29;20295;-68
2023/08/03 06:06:26;;;;;;;2.00;1.00;;;;;;;-145.68;56.84;71807.19;10212792;29;20235;-67
2023/08/03 06:11:27;;;;;;;6.03;1.10;;;;;;;-145.68;55.83;71789.19;10212369;29;20284;-68
2023/08/03 06:16:27;;;;;;;5.55;1.25;;;;;;;-145.68;54.69;71747.25;10212168;29;20230;-68
2023/08/03 06:21:28;;;;;;;13.02;1.60;;;;;;;-145.68;53.49;71745.25;10212212;29;20212;-68
2023/08/03 06:26:31;;;;;;;5.43;0.95;;;;;;;-145.68;53.37;71677.31;10211681;29;20235;-67
2023/08/03 06:31:37;;;;;;;5.80;1.33;;;;;;;-145.68;51.80;71661.31;10211930;29;20214;-67
2023/08/03 06:36:40;;;;;;;5.50;1.50;;;;;;;-145.68;52.29;71697.28;10211459;29;20243;-67
2023/08/03 06:41:41;;;;;;;5.88;1.20;;;;;;;-145.68;51.15;71649.34;10211235;29;20222;-67
2023/08/03 06:46:48;;;;;;;6.38;1.63;;;;;;;-145.68;51.21;71693.28;10194026;29;20236;-66
2023/08/03 06:51:49;;;;;;;4.00;1.10;;;;;;;-145.68;51.69;71741.25;10195598;29;20231;-66
2023/08/03 06:56:49;;;;;;;6.10;0.95;;;;;;;-145.68;52.21;71739.25;10210862;29;20242;-66
2023/08/03 07:01:50;;;;;;;3.22;1.05;;;;;;;-145.68;51.79;71723.25;10211129;29;20204;-67
2023/08/03 07:06:50;;;;;;;4.00;1.25;;;;;;;-145.68;52.42;71789.19;10210570;29;20228;-66
2023/08/03 07:11:51;;;;;;;9.00;1.40;;;;;;;-145.68;52.31;71785.19;10210783;29;20252;-66
2023/08/03 07:16:51;;;;;;;3.28;1.38;;;;;;;-145.68;52.33;71763.22;10210478;29;20378;-66
2023/08/03 07:21:51;;;;;;;3.25;0.85;;;;;;;-145.68;52.50;71757.22;10210582;29;20212;-67
2023/08/03 07:26:52;;;;;;;3.03;1.00;;;;;;;-145.68;52.09;71735.25;10193657;29;20239;-66
2023/08/03 07:31:52;;;;;;;2.42;0.90;;;;;;;-145.68;51.51;71705.28;10211020;29;20204;-67
2023/08/03 07:36:53;;;;;;;2.30;0.70;;;;;;;-145.68;52.34;71701.28;10210164;29;20231;-67
2023/08/03 07:41:54;;;;;;;2.90;1.02;;;;;;;-145.68;53.03;71763.22;10210236;29;20292;-67
2023/08/03 07:46:54;;;;;;;2.53;0.80;;;;;;;-145.68;53.36;71707.28;10210070;29;20318;-67
2023/08/03 07:51:54;;;;;;;5.18;1.38;;;;;;;-145.68;52.15;71795.19;10209762;29;20216;-66
2023/08/03 07:56:55;;;;;;;3.97;1.20;;;;;;;-145.68;52.49;71769.22;10216298;29;20248;-68
2023/08/03 08:01:55;;;;;;;3.40;1.00;;;;;;;-145.68;51.16;71747.25;10216048;29;20227;-68
2023/08/03 08:06:55;;;;;;;0.52;0.50;;;;;;;-145.68;51.19;71779.19;10217061;29;20248;-68
2023/08/03 08:11:56;;;;;;;1.80;0.98;;;;;;;-145.68;51.68;71723.25;10217132;29;20212;-69
2023/08/03 08:16:56;;;;;;;4.65;0.90;;;;;;;-145.68;51.79;71809.16;10216363;29;20691;-67
2023/08/03 08:21:57;;;;;;;4.32;1.10;;;;;;;-145.68;51.57;71775.22;10216747;29;20695;-69
2023/08/03 08:26:57;;;;;;;2.75;0.95;;;;;;;-145.68;51.39;71767.22;10216186;29;20359;-68
2023/08/03 08:31:57;;;;;;;6.30;1.10;;;;;;;-145.68;50.31;71759.22;10216462;29;20275;-68
2023/08/03 08:36:58;;;;;;;3.92;0.70;;;;;;;-145.68;50.54;71737.25;10215890;29;20922;-67
2023/08/03 08:41:58;;;;;;;4.15;0.98;;;;;;;-145.68;51.22;71815.16;10215850;29;20222;-68
2023/08/03 08:46:58;;;;;;;2.63;0.77;;;;;;;-145.68;50.16;71753.22;10215721;29;20255;-68
2023/08/03 08:52:01;;;;;;;4.68;0.70;;;;;;;-145.68;50.53;71749.22;10215361;29;20342;-68
2023/08/03 08:57:02;;;;;;;4.20;0.82;;;;;;;-145.68;50.39;71807.19;10215185;29;20243;-68
2023/08/03 09:02:02;;;;;;;4.82;1.02;;;;;;;-145.68;51.06;71909.06;10215119;29;20215;-69
2023/08/03 09:07:03;;;;;;;5.22;0.82;;;;;;;-145.68;51.25;71817.16;10214422;29;20600;-68
2023/08/03 09:12:04;;;;;;;3.85;0.70;;;;;;;-145.68;50.82;71805.19;10214811;29;20298;-68
2023/08/03 09:17:17;;;;;;;1.83;0.82;;;;;;;-145.68;50.69;71855.13;10197259;29;20227;-67
2023/08/03 09:22:19;;;;;;;8.02;0.90;;;;;;;-145.68;50.68;71761.22;10214349;29;20204;-67
2023/08/03 09:27:20;;;;;;;2.25;0.70;;;;;;;-145.68;49.20;71693.28;10214194;29;20998;-67
2023/08/03 09:32:20;;;;;;;2.70;0.73;;;;;;;-145.68;49.05;71715.28;10214046;29;20307;-67
2023/08/03 09:37:32;;;;;;;1.52;0.60;;;;;;;-145.68;48.49;71745.25;10213876;29;20264;-68
2023/08/03 09:42:33;;;;;;;4.10;0.60;;;;;;;-145.68;48.51;71737.25;10213465;29;20698;-68
2023/08/03 09:47:36;;;;;;;2.55;0.60;;;;;;;-145.68;47.62;71663.31;10213317;29;20314;-67
2023/08/03 09:52:45;;;;;;;1.95;0.70;;;;;;;-145.68;48.34;71729.25;10213192;29;20298;-68
2023/08/03 09:57:51;;;;;;;1.88;0.50;;;;;;;-145.68;48.29;71735.25;10212978;29;20766;-68
2023/08/03 10:02:55;;;;;;;1.00;0.40;;;;;;;-145.68;47.82;71723.25;10212645;29;20818;-69
2023/08/03 10:08:09;;;;;;;0.63;0.60;;;;;;;-145.68;48.37;71681.31;10212611;29;20242;-69
2023/08/03 10:13:10;;;;;;;3.63;0.75;;;;;;;-145.68;48.34;71737.25;10212304;29;20208;-67
2023/08/03 10:18:11;;;;;;;1.08;0.45;;;;;;;-145.68;49.18;71805.19;10211600;29;20231;-67
2023/08/03 10:23:17;;;;;;;1.33;0.50;;;;;;;-145.68;48.66;71767.22;10195375;29;20749;-69
2023/08/03 10:28:19;;;;;;;0.95;0.57;;;;;;;-145.68;48.54;71773.22;10211958;29;20235;-68
2023/08/03 10:33:19;;;;;;;2.03;0.70;;;;;;;-145.68;50.07;71831.16;10211879;29;20208;-68
2023/08/03 10:38:21;;;;;;;3.22;0.45;;;;;;;-145.68;49.59;71801.19;10211241;29;20244;-69
2023/08/03 10:43:22;;;;;;;3.65;0.85;;;;;;;-145.68;49.90;71907.06;10211575;29;20216;-69
2023/08/03 10:48:30;;;;;;;2.70;0.77;;;;;;;-145.68;49.95;71917.06;10211991;29;20228;-68
2023/08/03 10:53:30;;;;;;;5.55;0.90;;;;;;;-145.68;50.39;71927.06;10212188;29;20220;-68
2023/08/03 10:58:42;;;;;;;1.38;0.68;;;;;;;-145.68;50.19;71879.09;10238587;23;20598;-70
2023/08/03 11:03:42;;;;;;;1.05;0.68;;;;;;;-145.68;50.33;71889.09;10216237;29;20215;-69
2023/08/03 11:08:44;;;;;;;3.63;0.85;;;;;;;-145.68;49.98;71933.03;10194038;29;20232;-69
2023/08/03 11:13:44;;;;;;;1.40;0.63;;;;;;;-145.68;50.22;71891.09;10193647;29;20218;-68
2023/08/03 11:18:45;;;;;;;1.50;0.73;;;;;;;-145.68;50.17;71909.06;10210382;29;20246;-69
2023/08/03 11:23:46;;;;;;;0.85;0.60;;;;;;;-145.68;49.51;71813.16;10210585;29;20212;-68
2023/08/03 11:28:47;;;;;;;1.48;0.85;;;;;;;-145.68;48.63;71761.22;10212916;29;20228;-70
2023/08/03 11:33:51;;;;;;;1.27;0.80;;;;;;;-145.68;47.77;71747.25;10218461;29;20221;-68
2023/08/03 11:38:52;;;;;;;2.80;1.08;;;;;;;-145.68;48.54;71777.22;10217901;29;20235;-69
2023/08/03 11:43:52;;;;;;;1.83;0.70;;;;;;;-145.68;47.77;71743.25;10217998;29;20712;-69
2023/08/03 11:48:56;;;;;;;3.78;0.77;;;;;;;-145.68;47.80;71781.19;10217807;29;20245;-69
2023/08/03 11:53:56;;;;;;;3.75;0.80;;;;;;;-145.68;46.99;71717.28;10217687;29;20204;-69
2023/08/03 11:58:57;;;;;;;1.52;0.80;;;;;;;-145.68;47.24;71639.34;10217527;29;20236;-70
2023/08/03 12:04:05;;;;;;;2.33;0.82;;;;;;;-145.68;47.32;71813.16;10217150;29;20287;-70
2023/08/03 12:09:06;;;;;;;3.03;0.75;;;;;;;-145.68;48.25;71735.25;10217077;29;20235;-70
2023/08/03 12:14:06;;;;;;;1.23;0.50;;;;;;;-145.68;47.57;71741.25;10216976;29;20932;-70
2023/08/03 12:19:09;;;;;;;1.25;0.57;;;;;;;-145.68;48.67;71879.09;10216720;29;20240;-69
2023/08/03 12:24:10;;;;;;;1.45;0.70;;;;;;;-145.68;49.15;71785.19;10216561;29;20309;-69
2023/08/03 12:29:10;;;;;;;4.95;0.65;;;;;;;-145.68;47.42;71743.25;10216570;29;20243;-70
2023/08/03 12:34:11;;;;;;;1.40;0.60;;;;;;;-145.68;47.80;71771.22;10216241;29;20226;-69
2023/08/03 12:39:11;;;;;;;1.98;0.52;;;;;;;-145.68;46.69;71759.22;10214973;29;20831;-69
2023/08/03 12:44:12;;;;;;;1.90;0.68;;;;;;;-145.68;48.10;71797.19;10215812;29;20212;-70
2023/08/03 12:49:12;;;;;;;3.58;0.60;;;;;;;-145.68;48.00;71809.16;10215512;29;20223;-69
2023/08/03 12:54:12;;;;;;;1.27;0.40;;;;;;;-145.68;47.54;71817.16;10215477;29;20218;-70
2023/08/03 12:59:13;;;;;;;3.88;0.63;;;;;;;-145.68;47.37;71811.16;10215161;29;20235;-68
2023/08/03 13:04:13;;;;;;;0.88;0.60;;;;;;;-145.68;47.80;71829.16;10215038;29;20303;-69
2023/08/03 13:09:13;;;;;;;2.15;0.50;;;;;;;-145.68;48.16;71805.19;10214990;29;20220;-70
2023/08/03 13:14:14;;;;;;;1.52;0.47;;;;;;;-145.68;48.22;71793.19;10214875;29;20214;-69
2023/08/03 13:19:14;;;;;;;4.57;0.50;;;;;;;-145.68;49.04;71863.13;10214270;29;20330;-70
2023/08/03 13:24:17;;;;;;;0.55;0.30;;;;;;;-145.68;49.12;71865.13;10214445;29;20212;-70
2023/08/03 13:29:19;;;;;;;0.45;0.38;;;;;;;-145.68;48.84;71861.13;10213962;29;20718;-70
2023/08/03 13:34:20;;;;;;;3.05;0.60;;;;;;;-145.68;48.45;71823.16;10213917;29;20211;-69
2023/08/03 13:39:20;;;;;;;3.40;0.40;;;;;;;-145.68;48.50;71873.09;10213444;29;20335;-69
2023/08/03 13:44:21;;;;;;;1.08;0.50;;;;;;;-145.68;49.98;71969.00;10213455;29;20208;-70
2023/08/03 13:49:21;;;;;;;1.75;0.50;;;;;;;-145.68;49.24;71885.09;10213506;29;20327;-71
2023/08/03 13:54:22;;;;;;;2.30;0.52;;;;;;;-145.68;47.10;71779.19;10212798;29;20305;-70
2023/08/03 13:59:23;;;;;;;1.83;0.50;;;;;;;-145.68;47.52;71807.19;10213044;29;20256;-69
2023/08/03 14:04:23;;;;;;;0.93;0.80;;;;;;;-145.68;43.92;71559.44;10212760;29;20692;-70
2023/08/03 14:09:24;;;;;;;0.90;0.45;;;;;;;-145.68;44.06;71577.41;10212837;29;20327;-72
2023/08/03 14:14:24;;;;;;;1.45;0.70;;;;;;;-145.68;45.03;71661.31;10212528;29;20212;-71
2023/08/03 14:19:25;;;;;;;1.00;0.50;;;;;;;-145.68;45.78;71795.19;10211846;29;20239;-71
2023/08/03 14:24:25;;;;;;;1.60;0.70;;;;;;;-145.68;47.36;71823.16;10212220;29;20212;-70
2023/08/03 14:29:25;;;;;;;2.53;0.43;;;;;;;-145.68;45.03;71699.28;10211708;29;20302;-71
2023/08/03 14:34:26;;;;;;;2.80;0.60;;;;;;;-145.68;44.71;71625.38;10211729;29;20576;-70
2023/08/03 14:39:26;;;;;;;2.60;0.50;;;;;;;-145.68;43.51;71581.41;10211554;29;20303;-69
2023/08/03 14:44:29;;;;;;;4.55;0.50;;;;;;;-145.68;43.23;71581.41;10211154;29;20275;-70
2023/08/03 14:49:29;;;;;;;2.17;0.60;;;;;;;-145.68;44.98;71781.19;10211509;29;20236;-71
2023/08/03 14:54:29;;;;;;;3.78;0.90;;;;;;;-145.68;45.25;71755.22;10210721;29;20656;-72
2023/08/03 14:59:30;;;;;;;1.92;0.60;;;;;;;-145.68;46.05;71799.19;10211030;29;20266;-71
2023/08/03 15:04:30;;;;;;;1.38;0.52;;;;;;;-145.68;44.83;71681.31;10210434;29;20215;-70
2023/08/03 15:09:30;;;;;;;1.33;0.55;;;;;;;-145.68;44.31;71655.34;10210589;29;20254;-71
2023/08/03 15:14:31;;;;;;;1.17;0.60;;;;;;;-145.68;44.21;71611.38;10212480;29;20224;-70
2023/08/03 15:19:31;;;;;;;1.10;0.50;;;;;;;-145.68;44.25;71727.25;10211181;29;20242;-70
2023/08/03 15:24:31;;;;;;;2.10;0.47;;;;;;;-145.68;45.00;71683.31;10210732;29;20215;-70
2023/08/03 15:29:32;;;;;;;3.95;0.60;;;;;;;-145.68;44.25;71639.34;10210357;29;20310;-71
2023/08/03 15:34:32;;;;;;;0.93;0.57;;;;;;;-145.68;43.03;71607.38;10210264;29;20275;-70
2023/08/03 15:39:33;;;;;;;5.13;0.50;;;;;;;-145.68;43.80;71717.28;10209955;29;20235;-72
2023/08/03 15:44:33;;;;;;;0.88;0.50;;;;;;;-145.68;44.32;71727.25;10210095;29;20208;-70
2023/08/03 15:49:33;;;;;;;0.70;0.60;;;;;;;-145.68;44.12;71687.31;10209914;29;20232;-70
2023/08/03 15:54:34;;;;;;;6.03;0.50;;;;;;;-145.68;43.76;71665.31;10210159;29;20250;-70
2023/08/03 15:59:34;;;;;;;0.63;0.57;;;;;;;-145.68;44.72;71719.25;10209700;29;20242;-70
2023/08/03 16:04:34;;;;;;;2.95;0.50;;;;;;;-145.68;44.28;71699.28;10209682;29;20208;-69
2023/08/03 16:09:35;;;;;;;0.70;0.50;;;;;;;-145.68;44.42;71723.25;10209746;29;20232;-70
2023/08/03 16:14:35;;;;;;;0.90;0.40;;;;;;;-145.68;47.13;71925.06;10211145;29;20211;-68
2023/08/03 16:19:36;;;;;;;2.22;0.52;;;;;;;-145.68;45.43;71837.16;10216535;29;20368;-68
2023/08/03 16:24:37;;;;;;;0.60;0.55;;;;;;;-145.68;46.96;71873.09;10216542;29;20207;-69
2023/08/03 16:29:37;;;;;;;2.05;0.57;;;;;;;-145.68;47.86;71925.06;10216378;29;20235;-68
2023/08/03 16:34:38;;;;;;;0.45;0.43;;;;;;;-145.68;48.89;71991.00;10220932;29;20239;-69
2023/08/03 16:39:38;;;;;;;1.30;0.70;;;;;;;-145.68;48.63;72016.97;10216047;29;20258;-68
2023/08/03 16:44:38;;;;;;;0.70;0.50;;;;;;;-145.68;48.65;72020.97;10216055;29;20325;-68
2023/08/03 16:49:41;;;;;;;2.25;0.80;;;;;;;-145.68;48.40;72044.94;10215444;29;20236;-68
2023/08/03 16:54:43;;;;;;;1.27;0.43;;;;;;;-145.68;48.05;72036.94;10215592;29;20216;-68
2023/08/03 16:59:43;;;;;;;0.95;0.65;;;;;;;-145.68;48.73;72026.97;10214895;29;20268;-69
2023/08/03 17:04:43;;;;;;;0.57;0.50;;;;;;;-145.68;48.51;72004.97;10214973;29;20272;-70
2023/08/03 17:09:44;;;;;;;2.08;0.68;;;;;;;-145.68;48.10;72008.97;10214800;29;20351;-68
2023/08/03 17:14:44;;;;;;;0.70;0.50;;;;;;;-145.68;48.31;71996.97;10214427;29;20210;-70
2023/08/03 17:19:44;;;;;;;3.97;0.60;;;;;;;-145.68;48.41;72026.97;10214357;29;20326;-70
2023/08/03 17:24:45;;;;;;;0.75;0.50;;;;;;;-145.68;48.38;72030.94;10214210;29;20207;-69
2023/08/03 17:29:45;;;;;;;1.55;0.60;;;;;;;-145.68;48.05;72058.94;10214272;29;20231;-70
2023/08/03 17:34:46;;;;;;;0.50;0.50;;;;;;;-145.68;48.44;72062.91;10213683;29;20223;-69
2023/08/03 17:39:46;;;;;;;0.57;0.50;;;;;;;-145.68;48.83;72072.91;10213597;29;20269;-69
2023/08/03 17:44:46;;;;;;;0.57;0.40;;;;;;;-145.68;49.05;72096.88;10196617;29;20235;-69
2023/08/03 17:49:47;;;;;;;0.75;0.50;;;;;;;-145.68;49.11;72104.88;10213063;29;20223;-69
2023/08/03 17:54:48;;;;;;;2.00;0.82;;;;;;;-145.68;49.77;72124.88;10213139;29;20219;-69
2023/08/03 17:59:49;;;;;;;0.85;0.47;;;;;;;-145.68;50.05;72134.84;10212600;29;20247;-68
2023/08/03 18:04:50;;;;;;;3.80;0.60;;;;;;;-145.68;50.88;72170.81;10213021;29;20678;-69
2023/08/03 18:09:51;;;;;;;3.00;0.50;;;;;;;-145.68;51.11;72182.81;10212560;29;20267;-69
2023/08/03 18:14:51;;;;;;;1.27;0.50;;;;;;;-145.68;51.76;72196.78;10212037;29;20669;-69
2023/08/03 18:19:53;;;;;;;1.20;0.47;;;;;;;-145.68;52.52;72222.78;10212243;29;20250;-69
2023/08/03 18:24:54;;;;;;;0.70;0.60;;;;;;;-145.68;52.54;72222.78;10211992;29;20248;-69
2023/08/03 18:29:54;;;;;;;0.70;0.50;;;;;;;-145.68;52.51;72228.75;10211871;29;20600;-69
2023/08/03 18:34:54;;;;;;;0.85;0.50;;;;;;;-145.68;52.71;72248.75;10211840;29;20699;-69
2023/08/03 18:39:55;;;;;;;2.20;0.90;;;;;;;-145.68;53.25;72272.72;10210842;29;20614;-68
2023/08/03 18:44:55;;;;;;;1.63;0.60;;;;;;;-145.68;52.79;72276.72;10211352;29;20577;-69
2023/08/03 18:49:56;;;;;;;0.73;0.52;;;;;;;-145.68;53.11;72266.72;10210959;29;20231;-68
2023/08/03 18:54:56;;;;;;;1.85;0.47;;;;;;;-145.68;53.44;72282.72;10211249;29;20215;-69
2023/08/03 18:59:56;;;;;;;0.85;0.40;;;;;;;-145.68;53.90;72308.69;10210700;29;20236;-68
2023/08/03 19:04:57;;;;;;;0.45;0.35;;;;;;;-145.68;54.42;72342.66;10210852;29;20214;-69
2023/08/03 19:09:57;;;;;;;1.50;0.60;;;;;;;-145.68;55.16;72368.63;10210413;29;20228;-69
2023/08/03 19:14:57;;;;;;;1.13;0.50;;;;;;;-145.68;55.82;72400.59;10210495;29;20212;-68
2023/08/03 19:19:58;;;;;;;2.33;0.70;;;;;;;-145.68;55.68;72388.63;10210405;29;20236;-69
2023/08/03 19:24:58;;;;;;;0.60;0.60;;;;;;;-145.68;56.86;72440.56;10210418;29;20204;-69
2023/08/03 19:29:58;;;;;;;1.15;0.70;;;;;;;-145.68;58.16;72484.53;10210234;29;20238;-69
2023/08/03 19:34:59;;;;;;;2.05;1.30;;;;;;;-145.68;58.52;72480.53;10210266;29;20211;-68
2023/08/03 19:39:59;;;;;;;1.63;0.85;;;;;;;-145.68;59.34;72506.50;10210057;29;20721;-69
2023/08/03 19:44:59;;;;;;;1.17;1.02;;;;;;;-145.68;59.47;72496.53;10210051;29;20708;-69
2023/08/03 19:50:00;;;;;;;2.17;0.63;;;;;;;-145.68;59.68;72500.53;10213768;29;20714;-69
2023/08/03 19:55:01;;;;;;;5.43;1.90;;;;;;;-145.68;59.97;72508.50;10217475;29;20219;-70
2023/08/03 20:00:02;;;;;;;2.90;0.70;;;;;;;-145.68;60.34;72524.50;10217518;29;20232;-69
2023/08/03 20:05:11;;;;;;;2.67;0.98;;;;;;;-145.68;61.19;72548.47;10201552;29;20579;-69
2023/08/03 20:10:12;;;;;;;1.40;0.98;;;;;;;-145.68;61.26;72544.50;10217288;29;20235;-69
2023/08/03 20:15:13;;;;;;;2.63;0.70;;;;;;;-145.68;62.02;72566.47;10216866;29;20691;-68
2023/08/03 20:20:14;;;;;;;0.40;0.40;;;;;;;-145.68;62.82;72570.47;10216648;29;20282;-69
2023/08/03 20:25:14;;;;;;;2.67;1.48;;;;;;;-145.68;63.02;72572.47;10216689;29;20228;-68
2023/08/03 20:30:15;;;;;;;1.15;0.60;;;;;;;-145.68;63.24;72576.47;10216108;29;20251;-69
2023/08/03 20:35:15;;;;;;;2.13;0.90;;;;;;;-145.68;63.44;72582.44;10215915;29;20267;-68
2023/08/03 20:40:15;;;;;;;4.07;3.22;;;;;;;-145.68;64.37;72592.44;10215759;29;20240;-68
2023/08/03 20:45:16;;;;;;;4.32;0.70;;;;;;;-145.68;65.74;72622.41;10215500;29;20208;-68
2023/08/03 20:50:16;;;;;;;1.42;0.82;;;;;;;-145.68;65.88;72606.44;10215534;29;20243;-68
2023/08/03 20:55:17;;;;;;;1.02;0.82;;;;;;;-145.68;66.19;72612.44;10215021;29;20211;-68
2023/08/03 21:00:17;;;;;;;0.82;0.65;;;;;;;-145.68;66.70;72636.41;10214582;29;20238;-68
2023/08/03 21:05:18;;;;;;;1.20;0.85;;;;;;;-145.68;67.31;72640.41;10214399;29;20212;-68
2023/08/03 21:10:18;;;;;;;1.08;0.98;;;;;;;-145.68;67.26;72628.41;10212787;29;20244;-68
2023/08/03 21:15:19;;;;;;;2.55;0.60;;;;;;;-145.68;67.73;72644.41;10213356;29;20207;-68
2023/08/03 21:20:19;;;;;;;2.92;1.42;;;;;;;-145.68;67.20;72628.41;10213969;29;20310;-68
2023/08/03 21:25:20;;;;;;;1.52;0.80;;;;;;;-145.68;66.94;72630.41;10214151;29;20207;-68
2023/08/03 21:30:20;;;;;;;1.30;1.00;;;;;;;-145.68;66.49;72612.44;10213892;29;20244;-68
2023/08/03 21:35:21;;;;;;;2.20;0.63;;;;;;;-145.68;66.73;72624.41;10213910;29;20223;-68
2023/08/03 21:40:21;;;;;;;1.30;0.82;;;;;;;-145.68;66.88;72626.41;10212056;29;20310;-68
2023/08/03 21:45:22;;;;;;;2.90;0.60;;;;;;;-145.68;66.15;72624.41;10213416;29;20211;-68
2023/08/03 21:50:22;;;;;;;3.60;2.80;;;;;;;-145.68;66.25;72634.41;10213483;29;20236;-69
2023/08/03 21:55:23;;;;;;;1.63;1.13;;;;;;;-145.68;66.74;72646.41;10212891;29;20216;-68
2023/08/03 22:00:26;;;;;;;2.25;0.90;;;;;;;-145.68;67.11;72654.41;10212618;29;20605;-68
2023/08/03 22:05:28;;;;;;;1.60;0.68;;;;;;;-145.68;67.45;72658.38;10212570;29;20219;-68
2023/08/03 22:10:28;;;;;;;1.40;0.60;;;;;;;-145.68;67.63;72668.38;10212150;29;20249;-68
2023/08/03 22:15:29;;;;;;;1.25;0.80;;;;;;;-145.68;68.22;72672.38;10211518;29;20216;-68
2023/08/03 22:20:29;;;;;;;1.38;0.70;;;;;;;-145.68;68.66;72682.38;10211636;29;20265;-68
2023/08/03 22:25:29;;;;;;;2.50;0.70;;;;;;;-145.68;69.20;72690.38;10212145;29;20204;-68
2023/08/03 22:30:30;;;;;;;0.60;0.60;;;;;;;-145.68;70.37;72722.34;10211687;29;20251;-68
2023/08/03 22:35:30;;;;;;;4.43;0.70;;;;;;;-145.68;71.38;72736.31;10211680;29;20212;-68
2023/08/03 22:40:31;;;;;;;3.13;0.82;;;;;;;-145.68;73.39;72774.31;10211546;29;20247;-68
2023/08/03 22:45:31;;;;;;;0.80;0.60;;;;;;;-145.68;75.37;72784.28;10211251;29;20218;-68
2023/08/03 22:50:31;;;;;;;2.88;0.70;;;;;;;-145.68;75.86;72788.28;10211339;29;20236;-68